createdAt,value
2023-02-25T00:00:34.951Z,98.50
2023-02-25T00:03:01.991Z,98.50
2023-02-25T00:05:31.979Z,99.21
2023-02-25T00:07:59.422Z,98.43
2023-02-25T00:30:43.322Z,89.40
2023-02-25T00:35:44.098Z,91.56
2023-02-25T00:38:16.016Z,90.62
2023-02-25T00:40:43.108Z,90.82
2023-02-25T00:43:09.868Z,90.42
2023-02-25T00:45:39.492Z,87.87
2023-02-25T00:48:06.794Z,89.07
2023-02-25T00:50:33.404Z,90.24
2023-02-25T00:52:59.975Z,88.22
2023-02-25T00:55:33.578Z,87.97
2023-02-25T00:58:01.467Z,86.90
2023-02-25T01:00:28.842Z,87.11
2023-02-25T01:02:57.165Z,87.22
2023-02-25T01:05:23.906Z,86.81
2023-02-25T01:07:50.660Z,87.68
2023-02-25T01:10:17.567Z,86.62
2023-02-25T01:12:44.077Z,88.34
2023-02-25T01:15:11.220Z,86.91
2023-02-25T01:17:37.806Z,88.40
2023-02-25T01:20:11.273Z,88.15
2023-02-25T01:22:41.714Z,89.13
2023-02-25T01:30:18.476Z,86.13
2023-02-25T01:32:45.061Z,85.50
2023-02-25T01:35:11.624Z,85.06
2023-02-25T01:37:38.120Z,83.91
2023-02-25T01:40:05.713Z,82.39
2023-02-25T01:42:32.312Z,83.42
2023-02-25T01:45:20.381Z,82.84
2023-02-25T01:47:51.967Z,84.27
2023-02-25T01:50:20.164Z,82.41
2023-02-25T01:52:47.281Z,82.49
2023-02-25T01:55:14.007Z,83.52
2023-02-25T01:57:40.758Z,83.03
2023-02-25T02:00:12.615Z,82.53
2023-02-25T02:05:12.396Z,82.87
2023-02-25T02:07:38.942Z,83.40
2023-02-25T02:12:45.768Z,82.36
2023-02-25T02:15:15.282Z,82.75
2023-02-25T02:18:02.901Z,83.12
2023-02-25T02:20:50.925Z,82.97
2023-02-25T02:23:46.269Z,84.25
2023-02-25T02:26:44.607Z,83.07
2023-02-25T02:29:59.568Z,82.82
2023-02-25T02:32:47.470Z,82.38
2023-02-25T02:35:36.818Z,82.65
2023-02-25T02:41:09.750Z,82.34
2023-02-25T02:43:58.634Z,81.38
2023-02-25T02:46:30.599Z,80.30
2023-02-25T02:49:05.717Z,81.14
2023-02-25T02:51:40.741Z,80.44
2023-02-25T02:54:09.763Z,80.52
2023-02-25T02:56:41.093Z,81.24
2023-02-25T02:59:12.611Z,80.56
2023-02-25T03:01:44.371Z,81.38
2023-02-25T03:04:17.587Z,80.22
2023-02-25T03:06:48.818Z,80.19
2023-02-25T03:09:22.730Z,80.42
2023-02-25T03:11:49.500Z,78.69
2023-02-25T03:14:16.048Z,80.62
2023-02-25T03:16:51.539Z,80.33
2023-02-25T03:19:21.647Z,80.64
2023-02-25T03:22:05.596Z,79.49
2023-02-25T03:24:59.281Z,80.35
2023-02-25T03:27:36.593Z,79.93
2023-02-25T03:30:12.727Z,79.67
2023-02-25T03:32:49.553Z,79.74
2023-02-25T03:35:19.057Z,80.14
2023-02-25T03:37:50.163Z,80.09
2023-02-25T03:40:19.764Z,81.17
2023-02-25T03:42:54.666Z,80.78
2023-02-25T03:45:21.770Z,81.34
2023-02-25T03:58:08.673Z,82.31
2023-02-25T04:00:37.346Z,83.45
2023-02-25T04:03:04.499Z,81.82
2023-02-25T04:05:31.265Z,81.33
2023-02-25T04:07:59.315Z,81.02
2023-02-25T04:10:26.111Z,80.38
2023-02-25T04:12:52.652Z,81.36
2023-02-25T04:17:59.772Z,81.30
2023-02-25T04:20:26.318Z,81.47
2023-02-25T04:22:52.807Z,79.22
2023-02-25T04:25:19.414Z,78.40
2023-02-25T04:27:46.128Z,77.95
2023-02-25T04:30:18.500Z,77.39
2023-02-25T04:32:45.280Z,78.99
2023-02-25T04:35:12.276Z,77.86
2023-02-25T04:37:40.292Z,77.60
2023-02-25T04:40:13.692Z,77.23
2023-02-25T04:42:40.956Z,77.45
2023-02-25T04:45:09.396Z,76.76
2023-02-25T04:47:36.874Z,75.91
2023-02-25T04:50:04.454Z,77.83
2023-02-25T04:52:31.433Z,76.24
2023-02-25T04:54:57.932Z,75.69
2023-02-25T04:57:24.879Z,75.10
2023-02-25T04:59:51.512Z,75.68
2023-02-25T05:02:18.096Z,76.36
2023-02-25T05:04:44.807Z,75.17
2023-02-25T05:07:11.414Z,74.61
2023-02-25T05:09:37.967Z,74.09
2023-02-25T05:12:04.742Z,72.94
2023-02-25T05:14:32.967Z,73.04
2023-02-25T05:16:59.588Z,73.17
2023-02-25T05:21:57.500Z,73.14
2023-02-25T05:24:24.103Z,73.30
2023-02-25T05:26:51.736Z,71.61
2023-02-25T05:29:18.733Z,70.86
2023-02-25T05:31:45.492Z,71.18
2023-02-25T05:34:12.187Z,71.13
2023-02-25T05:36:38.761Z,70.87
2023-02-25T05:41:43.665Z,70.07
2023-02-25T05:44:11.320Z,71.18
2023-02-25T05:46:37.906Z,71.63
2023-02-25T05:49:04.629Z,72.25
2023-02-25T05:51:31.188Z,72.27
2023-02-25T05:53:57.701Z,72.01
2023-02-25T05:56:26.115Z,71.50
2023-02-25T05:58:54.003Z,71.39
2023-02-25T06:01:28.816Z,71.44
2023-02-25T06:03:58.870Z,72.49
2023-02-25T06:06:28.524Z,71.00
2023-02-25T06:08:55.764Z,70.55
2023-02-25T06:11:25.753Z,70.71
2023-02-25T06:13:54.637Z,71.57
2023-02-25T06:16:22.552Z,70.54
2023-02-25T06:18:51.550Z,68.93
2023-02-25T06:21:18.801Z,68.79
2023-02-25T06:23:45.374Z,69.79
2023-02-25T06:26:14.150Z,70.27
2023-02-25T06:28:40.748Z,70.12
2023-02-25T06:31:11.300Z,68.97
2023-02-25T06:33:38.327Z,69.44
2023-02-25T06:36:05.883Z,70.60
2023-02-25T06:38:36.405Z,70.07
2023-02-25T06:41:22.523Z,69.47
2023-02-25T06:43:52.659Z,70.54
2023-02-25T06:46:23.680Z,70.99
2023-02-25T06:48:50.436Z,70.24
2023-02-25T06:51:17.075Z,70.99
2023-02-25T06:53:45.051Z,71.52
2023-02-25T06:56:13.603Z,71.64
2023-02-25T07:01:18.514Z,72.23
2023-02-25T07:03:45.127Z,70.82
2023-02-25T07:06:12.162Z,71.11
2023-02-25T07:08:38.684Z,70.40
2023-02-25T07:11:17.067Z,71.18
2023-02-25T07:13:44.319Z,71.39
2023-02-25T07:16:12.569Z,69.04
2023-02-25T07:18:40.103Z,71.03
2023-02-25T07:21:06.690Z,71.13
2023-02-25T07:23:33.710Z,70.88
2023-02-25T07:26:09.153Z,71.38
2023-02-25T07:28:36.277Z,70.82
2023-02-25T07:31:04.664Z,68.81
2023-02-25T07:33:31.591Z,70.03
2023-02-25T07:35:58.361Z,68.95
2023-02-25T07:38:24.914Z,68.51
2023-02-25T07:40:51.479Z,68.83
2023-02-25T07:43:18.017Z,69.25
2023-02-25T07:45:45.307Z,68.54
2023-02-25T07:48:11.910Z,68.72
2023-02-25T07:50:38.482Z,68.19
2023-02-25T07:53:05.063Z,68.66
2023-02-25T07:55:31.579Z,70.67
2023-02-25T07:57:58.158Z,70.17
2023-02-25T08:00:24.793Z,69.38
2023-02-25T08:02:51.466Z,68.96
2023-02-25T08:08:00.627Z,70.00
2023-02-25T08:10:27.289Z,70.36
2023-02-25T08:12:53.915Z,69.99
2023-02-25T08:17:53.186Z,69.69
2023-02-25T08:20:19.861Z,68.77
2023-02-25T08:22:46.494Z,67.37
2023-02-25T08:25:13.053Z,67.66
2023-02-25T08:27:40.012Z,66.93
2023-02-25T08:30:08.736Z,64.56
2023-02-25T08:32:36.829Z,62.93
2023-02-25T08:35:04.250Z,64.65
2023-02-25T08:37:30.917Z,63.73
2023-02-25T08:39:57.446Z,64.24
2023-02-25T08:42:24.379Z,64.46
2023-02-25T08:44:50.940Z,62.65
2023-02-25T08:47:17.567Z,63.59
2023-02-25T08:49:44.172Z,61.86
2023-02-25T08:52:14.135Z,61.59
2023-02-25T08:54:41.384Z,64.24
2023-02-25T08:57:07.915Z,61.09
2023-02-25T08:59:36.024Z,61.38
2023-02-25T09:02:05.522Z,62.26
2023-02-25T09:04:34.067Z,61.96
2023-02-25T09:07:01.685Z,61.64
2023-02-25T09:09:28.329Z,61.13
2023-02-25T09:11:55.574Z,61.27
2023-02-25T09:14:22.781Z,61.80
2023-02-25T09:16:49.709Z,60.25
2023-02-25T09:19:18.428Z,61.66
2023-02-25T09:21:48.405Z,60.42
2023-02-25T09:24:16.298Z,60.64
2023-02-25T09:26:42.929Z,60.38
2023-02-25T09:29:10.253Z,60.40
2023-02-25T09:31:37.849Z,58.18
2023-02-25T09:34:07.544Z,58.61
2023-02-25T09:36:34.331Z,58.31
2023-02-25T09:39:00.892Z,55.18
2023-02-25T09:41:55.772Z,55.12
2023-02-25T09:44:34.305Z,52.31
2023-02-25T09:47:05.265Z,53.96
2023-02-25T09:49:42.988Z,53.78
2023-02-25T09:52:18.738Z,52.87
2023-02-25T09:54:52.875Z,52.22
2023-02-25T09:57:23.458Z,52.61
2023-02-25T09:59:53.685Z,54.16
2023-02-25T10:02:35.480Z,53.93
2023-02-25T10:05:21.718Z,55.00
2023-02-25T10:07:58.230Z,53.45
2023-02-25T10:10:44.676Z,54.71
2023-02-25T10:13:35.909Z,54.00
2023-02-25T10:16:14.435Z,53.29
2023-02-25T10:19:03.927Z,53.29
2023-02-25T10:21:42.758Z,53.76
2023-02-25T10:24:34.811Z,52.58
2023-02-25T10:27:19.311Z,55.24
2023-02-25T10:29:50.508Z,53.48
2023-02-25T10:32:17.241Z,54.73
2023-02-25T10:34:44.035Z,55.37
2023-02-25T10:37:27.305Z,53.94
2023-02-25T10:39:58.903Z,54.50
2023-02-25T10:42:26.300Z,53.30
2023-02-25T10:44:54.719Z,53.31
2023-02-25T10:47:31.360Z,52.72
2023-02-25T10:50:44.913Z,53.38
2023-02-25T10:53:17.834Z,54.21
2023-02-25T10:55:44.381Z,54.59
2023-02-25T10:58:25.906Z,54.62
2023-02-25T11:00:57.981Z,54.79
2023-02-25T11:03:26.340Z,54.90
2023-02-25T11:06:07.135Z,54.62
2023-02-25T11:08:34.559Z,53.58
2023-02-25T11:11:13.531Z,52.41
2023-02-25T11:13:40.815Z,52.48
2023-02-25T11:16:10.661Z,52.62
2023-02-25T11:18:38.310Z,53.37
2023-02-25T11:21:07.983Z,51.43
2023-02-25T11:23:44.426Z,51.84
2023-02-25T11:26:30.382Z,53.59
2023-02-25T11:29:01.948Z,53.47
2023-02-25T11:31:34.967Z,54.72
2023-02-25T11:34:06.929Z,54.98
2023-02-25T11:36:38.687Z,55.82
2023-02-25T11:39:16.662Z,55.77
2023-02-25T11:41:49.677Z,56.05
2023-02-25T11:47:25.008Z,57.60
2023-02-25T11:50:06.994Z,57.27
2023-02-25T11:52:45.703Z,58.16
2023-02-25T11:55:28.960Z,58.34
2023-02-25T11:58:21.999Z,57.98
2023-02-25T12:00:48.488Z,57.84
2023-02-25T12:03:23.724Z,57.76
2023-02-25T12:05:50.522Z,57.64
2023-02-25T12:08:42.106Z,58.28
2023-02-25T12:11:30.683Z,57.42
2023-02-25T12:14:10.488Z,57.62
2023-02-25T12:16:56.156Z,57.31
2023-02-25T12:22:49.438Z,58.06
2023-02-25T12:25:31.025Z,57.59
2023-02-25T12:28:06.803Z,58.75
2023-02-25T12:30:57.705Z,59.49
2023-02-25T12:33:46.233Z,60.25
2023-02-25T12:36:49.032Z,63.94
2023-02-25T12:39:33.811Z,67.41
2023-02-25T12:45:05.777Z,68.49
2023-02-25T12:47:35.146Z,67.32
2023-02-25T12:50:21.644Z,68.04
2023-02-25T12:53:14.206Z,68.00
2023-02-25T12:55:52.894Z,68.15
2023-02-25T12:59:10.760Z,66.41
2023-02-25T13:02:02.231Z,66.48
2023-02-25T13:08:03.826Z,67.82
2023-02-25T13:13:35.934Z,67.44
2023-02-25T13:16:02.429Z,67.82
2023-02-25T13:18:37.481Z,66.34
2023-02-25T13:21:27.397Z,65.96
2023-02-25T13:23:53.948Z,66.15
2023-02-25T13:26:48.101Z,66.25
2023-02-25T13:29:34.953Z,64.74
2023-02-25T13:32:49.863Z,65.79
2023-02-25T13:35:33.461Z,65.19
2023-02-25T13:38:05.664Z,64.21
2023-02-25T13:40:42.871Z,65.35
2023-02-25T13:43:21.733Z,64.07
2023-02-25T13:46:23.035Z,65.18
2023-02-25T13:51:56.896Z,67.10
2023-02-25T13:54:26.230Z,64.99
2023-02-25T13:57:00.133Z,63.77
2023-02-25T13:59:49.692Z,63.57
2023-02-25T14:02:34.611Z,62.63
2023-02-25T14:05:35.340Z,63.20
2023-02-25T14:08:28.862Z,62.44
2023-02-25T14:11:31.110Z,61.38
2023-02-25T14:14:25.236Z,61.53
2023-02-25T14:16:58.995Z,60.16
2023-02-25T14:19:57.800Z,59.10
2023-02-25T14:22:39.293Z,58.28
2023-02-25T14:25:27.985Z,58.98
2023-02-25T14:28:17.336Z,58.59
2023-02-25T14:30:58.783Z,58.49
2023-02-25T14:33:39.580Z,57.64
2023-02-25T14:36:26.768Z,58.43
2023-02-25T14:39:15.223Z,59.22
2023-02-25T14:42:02.312Z,59.38
2023-02-25T14:45:10.132Z,59.86
2023-02-25T14:48:08.900Z,59.24
2023-02-25T14:50:50.934Z,58.87
2023-02-25T14:53:31.116Z,59.15
2023-02-25T14:56:23.868Z,58.94
2023-02-25T14:59:07.350Z,59.41
2023-02-25T15:01:44.427Z,59.21
2023-02-25T15:04:35.727Z,59.04
2023-02-25T15:10:00.317Z,60.27
2023-02-25T15:13:05.260Z,59.20
2023-02-25T15:15:50.816Z,59.93
2023-02-25T15:18:38.560Z,57.34
2023-02-25T15:21:29.951Z,57.80
2023-02-25T15:23:56.775Z,56.66
2023-02-25T15:26:39.339Z,55.65
2023-02-25T15:29:18.598Z,56.13
2023-02-25T15:32:10.836Z,56.24
2023-02-25T15:37:24.293Z,57.01
2023-02-25T15:39:56.217Z,57.56
2023-02-25T15:45:27.893Z,57.11
2023-02-25T15:48:19.397Z,57.72
2023-02-25T15:53:21.154Z,70.15
2023-02-25T15:56:03.626Z,73.39
2023-02-25T15:58:30.363Z,76.35
2023-02-25T16:01:00.891Z,78.86
2023-02-25T16:03:36.259Z,80.61
2023-02-25T16:06:21.345Z,81.03
2023-02-25T16:09:06.803Z,82.83
2023-02-25T16:12:03.932Z,84.19
2023-02-25T16:14:34.111Z,85.16
2023-02-25T16:17:06.232Z,85.57
2023-02-25T16:19:39.405Z,86.27
2023-02-25T16:22:40.214Z,86.22
2023-02-25T16:25:15.324Z,85.60
2023-02-25T16:27:47.703Z,85.20
2023-02-25T16:30:40.301Z,85.17
2023-02-25T16:33:20.585Z,83.48
2023-02-25T16:36:19.073Z,85.16
2023-02-25T16:39:10.165Z,84.98
2023-02-25T16:41:38.843Z,83.06
2023-02-25T16:44:06.903Z,82.02
2023-02-25T16:46:36.102Z,81.11
2023-02-25T16:49:08.654Z,80.72
2023-02-25T16:51:41.688Z,80.62
2023-02-25T16:54:31.366Z,80.44
2023-02-25T16:57:01.077Z,79.63
2023-02-25T16:59:31.816Z,80.42
2023-02-25T17:02:09.224Z,79.96
2023-02-25T17:04:37.369Z,80.50
2023-02-25T17:07:13.252Z,80.34
2023-02-25T17:09:53.582Z,80.88
2023-02-25T17:12:28.478Z,80.60
2023-02-25T17:14:56.118Z,80.21
2023-02-25T17:17:30.501Z,80.29
2023-02-25T17:19:58.140Z,81.50
2023-02-25T17:22:26.581Z,81.52
2023-02-25T17:24:56.997Z,80.94
2023-02-25T17:27:24.886Z,81.26
2023-02-25T17:29:51.830Z,84.07
2023-02-25T17:32:23.152Z,86.99
2023-02-25T17:34:53.637Z,89.65
2023-02-25T17:37:21.336Z,91.09
2023-02-25T17:39:48.891Z,92.84
2023-02-25T17:42:36.492Z,94.53
2023-02-25T17:45:08.359Z,95.67
2023-02-25T17:47:37.243Z,97.07
2023-02-25T17:50:29.421Z,98.47
2023-02-25T17:52:56.227Z,98.44
2023-02-25T17:55:34.459Z,98.24
2023-02-25T17:58:02.297Z,99.12
2023-02-25T18:00:33.728Z,98.82
2023-02-25T18:03:24.670Z,96.54
2023-02-25T18:06:00.549Z,95.96
2023-02-25T18:08:30.166Z,96.53
2023-02-25T18:10:56.863Z,97.29
2023-02-25T18:13:33.895Z,95.95
2023-02-25T18:16:13.209Z,94.72
2023-02-25T18:18:40.538Z,95.03
2023-02-25T18:21:10.742Z,96.13
2023-02-25T18:23:37.470Z,96.54
2023-02-25T18:26:17.770Z,95.52
2023-02-25T18:28:45.902Z,94.39
2023-02-25T18:31:14.818Z,92.54
2023-02-25T18:33:41.649Z,92.87
2023-02-25T18:36:09.293Z,92.13
2023-02-25T18:38:37.746Z,94.10
2023-02-25T18:41:08.160Z,92.82
2023-02-25T18:43:40.066Z,92.05
2023-02-25T18:46:06.595Z,93.41
2023-02-25T18:48:33.370Z,94.13
2023-02-25T18:50:59.959Z,94.06
2023-02-25T18:53:27.078Z,95.33
2023-02-25T18:58:34.820Z,93.49
2023-02-25T19:01:01.633Z,93.75
2023-02-25T19:03:39.324Z,93.70
2023-02-25T19:06:06.641Z,93.72
2023-02-25T19:08:33.517Z,94.20
2023-02-25T19:11:00.170Z,93.68
2023-02-25T19:16:09.964Z,93.25
2023-02-25T19:18:37.711Z,93.44
2023-02-25T19:21:06.509Z,93.35
2023-02-25T19:23:33.010Z,93.52
2023-02-25T19:26:00.601Z,94.27
2023-02-25T19:28:27.465Z,93.86
2023-02-25T19:30:54.158Z,93.83
2023-02-25T19:33:20.772Z,93.38
2023-02-25T19:35:47.312Z,93.17
2023-02-25T19:38:19.020Z,92.99
2023-02-25T19:40:47.782Z,93.20
2023-02-25T19:43:18.044Z,93.57
2023-02-25T19:45:44.662Z,93.67
2023-02-25T19:48:11.247Z,93.26
2023-02-25T19:53:14.262Z,93.59
2023-02-25T19:55:43.237Z,94.78
2023-02-25T19:58:09.838Z,94.08
2023-02-25T20:00:36.406Z,95.31
2023-02-25T20:03:03.037Z,95.46
2023-02-25T20:05:29.538Z,94.36
2023-02-25T20:07:56.201Z,95.03
2023-02-25T20:10:22.807Z,94.42
2023-02-25T20:12:49.454Z,94.38
2023-02-25T20:15:16.997Z,93.84
2023-02-25T20:17:45.380Z,93.83
2023-02-25T20:20:14.060Z,93.13
2023-02-25T20:22:41.116Z,92.90
2023-02-25T20:25:08.988Z,92.92
2023-02-25T20:27:37.186Z,93.24
2023-02-25T20:30:04.874Z,92.65
2023-02-25T20:35:02.982Z,92.67
2023-02-25T20:37:33.815Z,92.09
2023-02-25T20:40:00.743Z,92.02
2023-02-25T20:42:30.655Z,92.05
2023-02-25T20:44:58.653Z,91.31
2023-02-25T20:47:31.597Z,91.79
2023-02-25T20:49:58.595Z,90.95
2023-02-25T20:52:26.940Z,91.58
2023-02-25T20:54:54.322Z,91.67
2023-02-25T20:57:22.858Z,91.81
2023-02-25T20:59:49.968Z,91.45
2023-02-25T21:02:17.051Z,91.26
2023-02-25T21:04:44.308Z,89.83
2023-02-25T21:07:11.373Z,89.68
2023-02-25T21:09:38.095Z,89.87
2023-02-25T21:12:05.449Z,88.51
2023-02-25T21:14:32.053Z,86.86
2023-02-25T21:16:58.774Z,86.02
2023-02-25T21:19:28.256Z,86.13
2023-02-25T21:21:55.287Z,85.32
2023-02-25T21:24:22.330Z,85.32
2023-02-25T21:26:48.961Z,82.69
2023-02-25T21:29:15.994Z,82.03
2023-02-25T21:31:43.067Z,82.67
2023-02-25T21:34:12.840Z,80.99
2023-02-25T21:36:40.453Z,80.14
2023-02-25T21:39:09.325Z,80.27
2023-02-25T21:41:38.170Z,80.30
2023-02-25T21:44:04.961Z,79.69
2023-02-25T21:46:31.567Z,80.66
2023-02-25T21:48:58.220Z,80.97
2023-02-25T21:51:27.069Z,80.09
2023-02-25T21:53:58.423Z,79.02
2023-02-25T21:56:26.092Z,79.01
2023-02-25T21:58:58.744Z,79.51
2023-02-25T22:01:31.319Z,79.04
2023-02-25T22:03:58.388Z,76.56
2023-02-25T22:06:26.689Z,77.90
2023-02-25T22:08:54.258Z,77.89
2023-02-25T22:11:32.629Z,78.57
2023-02-25T22:14:01.006Z,79.35
2023-02-25T22:16:28.651Z,79.40
2023-02-25T22:18:56.473Z,79.48
2023-02-25T22:21:25.983Z,79.16
2023-02-25T22:23:55.073Z,80.00
2023-02-25T22:26:24.716Z,80.38
2023-02-25T22:29:01.937Z,80.54
2023-02-25T22:31:29.250Z,79.87
2023-02-25T22:33:57.057Z,81.42
2023-02-25T22:36:24.523Z,81.58
2023-02-25T22:38:51.401Z,81.43
2023-02-25T22:41:29.446Z,81.66
2023-02-25T22:43:58.524Z,81.15
2023-02-25T22:46:30.441Z,79.96
2023-02-25T22:51:42.932Z,80.18
2023-02-25T22:56:43.882Z,80.47
2023-02-25T22:59:10.660Z,80.21
2023-02-25T23:01:37.745Z,80.22
2023-02-25T23:04:05.603Z,80.40
2023-02-25T23:06:43.294Z,80.20
2023-02-25T23:09:10.738Z,79.46
2023-02-25T23:11:40.624Z,79.83
2023-02-25T23:14:07.447Z,79.26
2023-02-25T23:16:35.388Z,79.58
2023-02-25T23:19:04.694Z,79.60
2023-02-25T23:21:32.488Z,80.20
2023-02-25T23:24:00.527Z,79.92
2023-02-25T23:29:07.746Z,80.34
2023-02-25T23:31:37.175Z,78.88
2023-02-25T23:34:10.272Z,79.72
2023-02-25T23:36:38.686Z,78.07
2023-02-25T23:39:06.718Z,78.96
2023-02-25T23:41:36.911Z,78.91
2023-02-25T23:44:04.368Z,78.89
2023-02-25T23:46:32.010Z,79.36
2023-02-25T23:49:01.489Z,79.40
2023-02-25T23:51:28.695Z,78.62
2023-02-25T23:53:57.175Z,77.23
2023-02-25T23:56:24.703Z,76.72
2023-02-25T23:58:53.854Z,77.19
